Time;durP1;ratioP1;P1;durP2;ratioP2;P2;SDS_P1;SDS_P2;PMS_P1;PMS_P2;Temp;Humidity;BMP_temperature;BMP_pressure;BME280_temperature;BME280_humidity;BME280_pressure;Samples;Min_cycle;Max_cycle;Signal;HPM_P1;HPM_P2
2022/01/25 00:09:33;;;;;;;;;;;-4.00;96.80;;;;;;5017530;28;19975;-90
2022/01/25 00:33:25;;;;;;;;;;;-3.80;96.70;;;;;;5015423;28;19913;-89
2022/01/25 00:35:51;;;;;;;;;;;-3.80;96.40;;;;;;4998070;28;19956;-90
2022/01/25 00:38:17;;;;;;;;;;;-3.80;96.40;;;;;;4997768;28;20340;-90
2022/01/25 00:40:42;;;;;;;;;;;-3.70;96.80;;;;;;4997967;28;19913;-89
2022/01/25 00:43:08;;;;;;;;;;;-3.70;96.70;;;;;;4997760;28;19913;-90
2022/01/25 00:45:34;;;;;;;;;;;-3.70;96.70;;;;;;4998286;28;20001;-90
2022/01/25 00:48:02;;;;;;;;;;;-3.70;96.00;;;;;;4998454;28;19916;-90
2022/01/25 00:50:31;;;;;;;;;;;-3.70;96.10;;;;;;5015190;28;19909;-90
2022/01/25 00:55:23;;;;;;;;;;;-3.60;96.00;;;;;;5014989;28;19964;-90
2022/01/25 00:57:48;;;;;;;;;;;-3.70;96.00;;;;;;4997216;28;19917;-90
2022/01/25 01:00:14;;;;;;;;;;;-3.70;95.70;;;;;;4998166;28;19910;-89
2022/01/25 01:02:40;;;;;;;;;;;-3.70;96.00;;;;;;5003411;28;19921;-89
2022/01/25 01:05:06;;;;;;;;;;;-3.60;96.30;;;;;;5007946;28;19920;-90
2022/01/25 01:07:31;;;;;;;;;;;-3.70;95.60;;;;;;5009358;28;19909;-91
2022/01/25 01:09:58;;;;;;;;;;;-3.70;96.00;;;;;;5029607;28;19928;-90
2022/01/25 01:15:30;;;;;;;;;;;-3.70;95.40;;;;;;4990904;28;20376;-90
2022/01/25 01:31:37;;;;;;;;;;;-3.60;96.00;;;;;;5019396;28;19913;-90
2022/01/25 01:44:20;;;;;;;;;;;-3.80;95.80;;;;;;5018328;28;19917;-90
2022/01/25 01:47:01;;;;;;;;;;;-3.80;96.10;;;;;;5001093;28;20349;-90
2022/01/25 01:49:29;;;;;;;;;;;-3.80;96.00;;;;;;5001578;28;19996;-90
2022/01/25 01:51:54;;;;;;;;;;;-3.70;95.90;;;;;;5000975;28;19935;-90
2022/01/25 01:54:20;;;;;;;;;;;-3.70;95.80;;;;;;5018376;28;20457;-90
2022/01/25 01:56:45;;;;;;;;;;;-3.80;95.80;;;;;;5000990;28;20324;-90
2022/01/25 01:59:14;;;;;;;;;;;-3.70;95.70;;;;;;5000685;28;19949;-89
2022/01/25 02:01:41;;;;;;;;;;;-3.80;95.50;;;;;;5000792;28;20272;-90
2022/01/25 02:04:08;;;;;;;;;;;-3.90;95.60;;;;;;5000505;28;19918;-89
2022/01/25 02:06:34;;;;;;;;;;;-3.80;96.00;;;;;;5017682;28;19913;-89
2022/01/25 02:09:00;;;;;;;;;;;-3.90;95.80;;;;;;5000430;28;19921;-89
2022/01/25 02:11:25;;;;;;;;;;;-3.90;96.20;;;;;;5000230;28;19909;-89
2022/01/25 02:13:51;;;;;;;;;;;-3.90;96.00;;;;;;5000470;28;19909;-90
2022/01/25 02:16:40;;;;;;;;;;;-3.90;96.10;;;;;;5000570;28;19913;-89
2022/01/25 02:24:38;;;;;;;;;;;-3.90;96.30;;;;;;5018209;28;20071;-89
2022/01/25 02:27:03;;;;;;;;;;;-3.90;96.00;;;;;;5000447;28;20380;-89
2022/01/25 02:29:29;;;;;;;;;;;-3.90;96.10;;;;;;5000515;28;19909;-89
2022/01/25 02:31:55;;;;;;;;;;;-3.90;96.00;;;;;;5017220;28;19932;-89
2022/01/25 02:34:22;;;;;;;;;;;-3.90;96.20;;;;;;5000262;28;19917;-89
2022/01/25 02:36:54;;;;;;;;;;;-4.00;96.20;;;;;;5017572;28;19916;-89
2022/01/25 02:39:20;;;;;;;;;;;-3.90;96.20;;;;;;5000238;28;20003;-90
2022/01/25 02:41:45;;;;;;;;;;;-3.90;96.30;;;;;;4999635;28;19949;-89
2022/01/25 02:44:12;;;;;;;;;;;-3.90;96.50;;;;;;5000040;28;19917;-89
2022/01/25 02:49:05;;;;;;;;;;;-3.90;96.50;;;;;;5016865;28;19917;-89
2022/01/25 02:51:35;;;;;;;;;;;-3.90;96.60;;;;;;4999847;28;19955;-89
2022/01/25 02:54:01;;;;;;;;;;;-3.90;95.90;;;;;;4999982;28;19917;-89
2022/01/25 02:56:27;;;;;;;;;;;-3.90;95.90;;;;;;4999704;28;19920;-89
2022/01/25 02:58:53;;;;;;;;;;;-3.90;96.00;;;;;;4999263;28;19913;-89
2022/01/25 03:01:20;;;;;;;;;;;-4.00;95.90;;;;;;4999428;28;19961;-90
2022/01/25 03:03:46;;;;;;;;;;;-4.00;96.10;;;;;;5016895;28;19964;-89
2022/01/25 03:06:15;;;;;;;;;;;-4.00;95.90;;;;;;4999569;28;19914;-90
2022/01/25 03:08:41;;;;;;;;;;;-4.00;96.00;;;;;;4999269;28;19928;-89
2022/01/25 03:11:07;;;;;;;;;;;-4.00;96.00;;;;;;5000026;28;20268;-89
2022/01/25 03:13:44;;;;;;;;;;;-4.00;96.30;;;;;;4999349;28;20420;-90
2022/01/25 03:16:18;;;;;;;;;;;-4.00;95.70;;;;;;4999260;28;19917;-90
2022/01/25 03:18:45;;;;;;;;;;;-4.00;96.00;;;;;;4999935;28;19945;-89
2022/01/25 03:24:09;;;;;;;;;;;-4.00;96.40;;;;;;4973571;28;19917;-89
2022/01/25 03:26:35;;;;;;;;;;;-4.00;96.10;;;;;;5000504;28;19924;-90
2022/01/25 03:29:02;;;;;;;;;;;-4.10;96.40;;;;;;5000579;28;20349;-89
2022/01/25 03:31:27;;;;;;;;;;;-4.10;96.60;;;;;;5000231;28;19916;-91
2022/01/25 03:33:53;;;;;;;;;;;-4.00;95.50;;;;;;5000350;28;19909;-90
2022/01/25 03:36:19;;;;;;;;;;;-4.10;95.80;;;;;;4999112;28;19913;-90
2022/01/25 03:38:44;;;;;;;;;;;-4.10;95.80;;;;;;4998849;28;20335;-90
2022/01/25 03:41:12;;;;;;;;;;;-4.10;96.00;;;;;;4999464;28;19941;-90
2022/01/25 03:43:38;;;;;;;;;;;-4.10;96.30;;;;;;4998487;28;19918;-90
2022/01/25 03:46:18;;;;;;;;;;;-4.10;96.30;;;;;;4999402;28;19910;-90
2022/01/25 03:51:28;;;;;;;;;;;-4.10;96.60;;;;;;5017539;28;19963;-88
2022/01/25 03:53:53;;;;;;;;;;;-4.10;96.60;;;;;;5001690;28;19913;-89
2022/01/25 03:56:20;;;;;;;;;;;-4.10;96.70;;;;;;4999576;28;19909;-89
2022/01/25 03:58:45;;;;;;;;;;;-4.10;96.60;;;;;;4998778;28;19909;-89
2022/01/25 04:01:11;;;;;;;;;;;-4.20;96.60;;;;;;4998605;28;19916;-90
2022/01/25 04:03:43;;;;;;;;;;;-4.20;97.00;;;;;;4998753;28;19913;-90
2022/01/25 04:06:10;;;;;;;;;;;-4.20;97.30;;;;;;4998232;28;19913;-89
2022/01/25 04:08:36;;;;;;;;;;;-4.20;97.10;;;;;;5015774;28;19965;-90
2022/01/25 04:11:02;;;;;;;;;;;-4.20;96.90;;;;;;4998883;28;19964;-90
2022/01/25 04:13:28;;;;;;;;;;;-4.20;96.80;;;;;;4998150;28;19916;-90
2022/01/25 04:15:57;;;;;;;;;;;-4.20;96.90;;;;;;4998095;28;20003;-90
2022/01/25 04:19:09;;;;;;;;;;;-4.20;97.00;;;;;;4998088;28;19918;-90
2022/01/25 04:21:26;;;;;;;;;;;-4.30;97.10;;;;;;5006926;28;19968;-90
2022/01/25 04:26:36;;;;;;;;;;;-4.30;97.10;;;;;;5019496;28;19928;-90
2022/01/25 04:29:02;;;;;;;;;;;-4.30;97.10;;;;;;5004762;28;19957;-89
2022/01/25 04:31:27;;;;;;;;;;;-4.30;97.20;;;;;;5020226;28;19925;-90
2022/01/25 04:34:25;;;;;;;;;;;-4.30;96.90;;;;;;4999321;28;20348;-89
2022/01/25 04:50:05;;;;;;;;;;;-4.20;97.10;;;;;;5015766;28;20320;-90
2022/01/25 04:52:37;;;;;;;;;;;-4.20;96.70;;;;;;4997819;28;19910;-90
2022/01/25 04:55:12;;;;;;;;;;;-4.20;96.80;;;;;;4998706;28;20388;-90
2022/01/25 04:57:46;;;;;;;;;;;-4.20;97.10;;;;;;5015422;28;19909;-90
2022/01/25 05:00:18;;;;;;;;;;;-4.20;97.00;;;;;;4997799;28;19917;-90
2022/01/25 05:05:29;;;;;;;;;;;-4.20;97.20;;;;;;5015083;28;19918;-90
2022/01/25 05:08:03;;;;;;;;;;;-4.20;97.00;;;;;;4997403;28;19916;-90
2022/01/25 05:10:31;;;;;;;;;;;-4.20;96.90;;;;;;4998257;28;19921;-90
2022/01/25 05:23:21;;;;;;;;;;;-4.30;96.90;;;;;;5014931;28;19978;-90
2022/01/25 05:25:47;;;;;;;;;;;-4.30;96.90;;;;;;4997439;28;19929;-90
2022/01/25 05:28:12;;;;;;;;;;;-4.30;97.00;;;;;;4998069;28;19914;-90
2022/01/25 05:30:38;;;;;;;;;;;-4.30;97.10;;;;;;5015770;28;19909;-90
2022/01/25 05:33:04;;;;;;;;;;;-4.30;97.30;;;;;;4997484;28;20364;-90
2022/01/25 05:35:29;;;;;;;;;;;-4.30;97.10;;;;;;4997521;28;19909;-90
2022/01/25 05:37:55;;;;;;;;;;;-4.30;97.00;;;;;;4998838;28;20012;-91
2022/01/25 05:40:39;;;;;;;;;;;-4.30;96.90;;;;;;4998260;28;19917;-90
2022/01/25 05:46:12;;;;;;;;;;;-4.30;96.70;;;;;;4982849;28;19913;-90
2022/01/25 05:48:38;;;;;;;;;;;-4.40;96.50;;;;;;5006043;28;19913;-90
2022/01/25 05:51:03;;;;;;;;;;;-4.40;96.80;;;;;;5003273;28;19910;-91
2022/01/25 05:53:29;;;;;;;;;;;-4.50;96.50;;;;;;4999445;28;20407;-90
2022/01/25 05:55:55;;;;;;;;;;;-4.40;96.60;;;;;;5001533;28;20002;-90
2022/01/25 05:58:20;;;;;;;;;;;-4.50;96.30;;;;;;5000843;28;19916;-90
2022/01/25 06:00:46;;;;;;;;;;;-4.50;96.50;;;;;;5000847;28;19963;-90
2022/01/25 06:03:12;;;;;;;;;;;-4.50;96.60;;;;;;5000532;28;19914;-90
2022/01/25 06:05:37;;;;;;;;;;;-4.60;96.80;;;;;;4986043;28;20281;-89
2022/01/25 06:08:03;;;;;;;;;;;-4.60;96.80;;;;;;4982222;28;19914;-90
2022/01/25 06:10:29;;;;;;;;;;;-4.60;96.70;;;;;;4981990;28;19910;-91
2022/01/25 06:12:55;;;;;;;;;;;-4.60;97.10;;;;;;4985252;28;19956;-89
2022/01/25 06:15:22;;;;;;;;;;;-4.60;97.00;;;;;;4987913;28;19913;-90
2022/01/25 06:17:49;;;;;;;;;;;-4.60;96.70;;;;;;4986353;28;20335;-91
2022/01/25 06:20:15;;;;;;;;;;;-4.60;96.90;;;;;;4983026;28;19909;-91
2022/01/25 06:22:40;;;;;;;;;;;-4.50;96.90;;;;;;4981073;28;19957;-90
2022/01/25 06:25:07;;;;;;;;;;;-4.40;97.00;;;;;;4980920;28;19917;-90
2022/01/25 06:27:33;;;;;;;;;;;-4.40;96.80;;;;;;4980710;28;19918;-90
2022/01/25 06:29:58;;;;;;;;;;;-4.30;96.20;;;;;;4981301;28;20004;-90
2022/01/25 06:32:24;;;;;;;;;;;-4.30;95.90;;;;;;4980822;28;19917;-91
2022/01/25 06:34:50;;;;;;;;;;;-4.20;96.30;;;;;;5001920;28;19909;-92
2022/01/25 06:37:18;;;;;;;;;;;-4.30;96.00;;;;;;4993448;28;19985;-90
2022/01/25 06:39:46;;;;;;;;;;;-4.20;95.70;;;;;;4995286;28;19969;-91
2022/01/25 06:42:14;;;;;;;;;;;-4.20;95.90;;;;;;4993721;28;20476;-92
2022/01/25 06:44:39;;;;;;;;;;;-4.20;95.60;;;;;;4990999;28;19913;-92
2022/01/25 06:47:05;;;;;;;;;;;-4.10;95.30;;;;;;5007431;28;19909;-91
2022/01/25 06:49:31;;;;;;;;;;;-4.10;95.60;;;;;;4990240;28;19932;-92
2022/01/25 06:51:58;;;;;;;;;;;-4.10;95.30;;;;;;4990411;28;19921;-91
2022/01/25 06:54:23;;;;;;;;;;;-4.10;95.40;;;;;;4990806;28;19910;-91
2022/01/25 06:56:49;;;;;;;;;;;-4.10;95.30;;;;;;4989883;28;19921;-93
2022/01/25 06:59:15;;;;;;;;;;;-4.10;95.70;;;;;;4990283;28;19980;-91
2022/01/25 07:01:41;;;;;;;;;;;-4.10;95.50;;;;;;5004576;28;19933;-91
2022/01/25 07:04:07;;;;;;;;;;;-4.10;95.20;;;;;;4985514;28;20444;-91
2022/01/25 07:06:35;;;;;;;;;;;-4.10;95.40;;;;;;4989534;28;19914;-96
2022/01/25 07:09:02;;;;;;;;;;;-4.10;95.70;;;;;;5007203;28;19921;-92
2022/01/25 07:11:29;;;;;;;;;;;-4.00;95.10;;;;;;4995636;28;19917;-94
2022/01/25 07:13:55;;;;;;;;;;;-4.00;95.50;;;;;;4995575;28;19909;-91
2022/01/25 07:16:21;;;;;;;;;;;-4.10;95.10;;;;;;4995775;28;19916;-91
2022/01/25 07:18:46;;;;;;;;;;;-4.10;94.30;;;;;;4991441;28;19958;-91
2022/01/25 07:21:12;;;;;;;;;;;-4.10;94.80;;;;;;4989827;28;19917;-92
2022/01/25 07:23:38;;;;;;;;;;;-4.10;94.90;;;;;;4989679;28;19985;-91
2022/01/25 07:26:06;;;;;;;;;;;-4.10;95.10;;;;;;4991396;28;19961;-91
2022/01/25 07:28:33;;;;;;;;;;;-4.10;94.40;;;;;;4991538;28;19910;-92
2022/01/25 07:30:59;;;;;;;;;;;-4.10;94.70;;;;;;4993939;28;19933;-92
2022/01/25 07:33:25;;;;;;;;;;;-4.20;94.40;;;;;;4994726;28;20353;-92
2022/01/25 07:35:53;;;;;;;;;;;-4.30;95.00;;;;;;5012192;28;19917;-91
2022/01/25 07:38:19;;;;;;;;;;;-4.20;95.00;;;;;;4997490;28;19920;-91
2022/01/25 07:40:45;;;;;;;;;;;-4.20;95.20;;;;;;4998166;28;19949;-90
2022/01/25 07:43:12;;;;;;;;;;;-4.20;94.50;;;;;;4996834;28;19913;-91
2022/01/25 07:45:42;;;;;;;;;;;-4.20;94.70;;;;;;4996234;28;19914;-91
2022/01/25 07:48:09;;;;;;;;;;;-4.10;94.80;;;;;;4994055;28;20005;-91
2022/01/25 07:50:45;;;;;;;;;;;;;;;;;;;;;
2022/01/25 07:53:11;;;;;;;;;;;-4.10;93.60;;;;;;5009154;28;19942;-91
2022/01/25 07:58:44;;;;;;;;;;;-4.10;93.50;;;;;;5009141;28;19921;-91
2022/01/25 08:01:27;;;;;;;;;;;;;;;;;;;;;
2022/01/25 08:04:01;;;;;;;;;;;-4.10;93.60;;;;;;5019943;28;19949;-93
2022/01/25 08:06:44;;;;;;;;;;;-4.00;93.70;;;;;;5027164;28;20024;-92
2022/01/25 08:09:17;;;;;;;;;;;-4.10;93.00;;;;;;5017323;28;19922;-92
2022/01/25 08:11:57;;;;;;;;;;;-4.10;93.40;;;;;;5010548;28;19914;-92
2022/01/25 08:14:48;;;;;;;;;;;-4.00;93.90;;;;;;5013778;28;19924;-93
2022/01/25 08:17:17;;;;;;;;;;;-3.90;93.30;;;;;;4997069;28;19909;-92
2022/01/25 08:23:00;;;;;;;;;;;-3.90;92.90;;;;;;5021030;28;19968;-93
2022/01/25 08:25:44;;;;;;;;;;;-3.90;93.50;;;;;;5021525;28;20424;-92
2022/01/25 08:28:58;;;;;;;;;;;;;;;;;;;;;
2022/01/25 08:31:42;;;;;;;;;;;;;;;;;;;;;
2022/01/25 08:34:25;;;;;;;;;;;-3.70;93.00;;;;;;4962732;29;20001;-93
2022/01/25 08:37:08;;;;;;;;;;;-3.70;92.90;;;;;;4948794;29;19918;-92
2022/01/25 08:39:52;;;;;;;;;;;;;;;;;;;;;
2022/01/25 08:42:52;;;;;;;;;;;-3.70;92.30;;;;;;5026299;28;19960;-92
2022/01/25 08:45:33;;;;;;;;;;;-3.80;92.10;;;;;;4999772;28;19917;-93
2022/01/25 08:48:26;;;;;;;;;;;-3.80;91.70;;;;;;4977729;28;19917;-92
2022/01/25 08:51:14;;;;;;;;;;;-3.80;91.30;;;;;;5003275;28;20396;-92
2022/01/25 08:53:53;;;;;;;;;;;-3.70;92.60;;;;;;4987266;28;20009;-91
2022/01/25 08:57:01;;;;;;;;;;;-3.70;92.60;;;;;;4986249;28;19932;-90
2022/01/25 08:59:29;;;;;;;;;;;-3.60;92.80;;;;;;4998321;28;19914;-91
2022/01/25 09:02:06;;;;;;;;;;;-3.50;92.90;;;;;;4981669;28;19960;-92
2022/01/25 09:04:52;;;;;;;;;;;;;;;;;;;;;
2022/01/25 09:07:23;;;;;;;;;;;-3.40;91.10;;;;;;5001670;28;19980;-91
2022/01/25 09:09:49;;;;;;;;;;;-3.40;90.80;;;;;;4997896;28;20324;-90
2022/01/25 09:15:43;;;;;;;;;;;-3.20;91.60;;;;;;5015266;28;20048;-89
2022/01/25 09:18:16;;;;;;;;;;;-3.10;92.10;;;;;;4995096;28;19959;-90
2022/01/25 09:20:42;;;;;;;;;;;-2.90;91.40;;;;;;4998088;28;19916;-90
2022/01/25 09:26:16;;;;;;;;;;;-2.90;90.00;;;;;;5014525;28;19917;-89
2022/01/25 09:28:50;;;;;;;;;;;-2.90;88.60;;;;;;4999689;28;20424;-91
2022/01/25 09:34:27;;;;;;;;;;;-2.90;90.80;;;;;;5018298;28;19956;-89
2022/01/25 09:36:58;;;;;;;;;;;-2.80;89.00;;;;;;5018775;28;19963;-89
2022/01/25 09:39:25;;;;;;;;;;;-2.80;88.30;;;;;;5018975;28;20000;-90
2022/01/25 09:41:53;;;;;;;;;;;-2.80;87.20;;;;;;5019357;28;19910;-90
2022/01/25 09:44:29;;;;;;;;;;;-2.80;90.00;;;;;;5000273;28;19918;-90
2022/01/25 09:46:56;;;;;;;;;;;-2.70;89.80;;;;;;5016893;28;19948;-90
2022/01/25 09:49:25;;;;;;;;;;;-2.60;90.30;;;;;;5001013;28;19910;-92
2022/01/25 09:52:14;;;;;;;;;;;-2.50;91.30;;;;;;5007607;28;20408;-92
2022/01/25 10:07:21;;;;;;;;;;;-1.90;90.10;;;;;;4973150;29;19953;-92
2022/01/25 10:13:27;;;;;;;;;;;-1.70;83.80;;;;;;4983623;28;19958;-94
2022/01/25 10:22:37;;;;;;;;;;;-1.70;88.00;;;;;;4984834;28;20401;-93
2022/01/25 10:25:38;;;;;;;;;;;-1.50;82.20;;;;;;4982331;28;19926;-93
2022/01/25 10:28:16;;;;;;;;;;;-1.60;83.60;;;;;;4971149;28;19921;-93
2022/01/25 10:31:07;;;;;;;;;;;-1.60;83.40;;;;;;4940457;29;20361;-95
2022/01/25 10:33:53;;;;;;;;;;;-1.70;81.10;;;;;;4949353;29;20013;-94
2022/01/25 10:39:51;;;;;;;;;;;-1.70;82.20;;;;;;4958652;28;19921;-95
2022/01/25 10:42:25;;;;;;;;;;;-1.90;80.50;;;;;;4958571;29;19918;-94
2022/01/25 10:45:09;;;;;;;;;;;;;;;;;;;;;
2022/01/25 10:50:45;;;;;;;;;;;-2.20;82.00;;;;;;5001608;28;19992;-94
2022/01/25 10:56:41;;;;;;;;;;;-2.20;82.40;;;;;;4945711;29;19922;-93
2022/01/25 11:02:51;;;;;;;;;;;-2.30;83.00;;;;;;4885334;29;19922;-96
2022/01/25 11:20:04;;;;;;;;;;;-1.90;81.50;;;;;;4887081;29;19923;-94
2022/01/25 11:22:31;;;;;;;;;;;-1.90;84.50;;;;;;4876760;29;19916;-95
2022/01/25 12:05:04;;;;;;;;;;;-2.20;86.40;;;;;;5091769;23;19938;-92
2022/01/25 12:20:26;;;;;;;;;;;-2.40;86.00;;;;;;4856166;29;19983;-96
2022/01/25 12:23:18;;;;;;;;;;;-2.30;87.10;;;;;;4850259;29;19974;-96
2022/01/25 12:26:32;;;;;;;;;;;-2.30;85.40;;;;;;4849286;29;19927;-93
2022/01/25 12:38:43;;;;;;;;;;;-2.50;85.30;;;;;;4807625;29;19924;-94
2022/01/25 12:44:37;;;;;;;;;;;;;;;;;;;;;
2022/01/25 12:56:58;;;;;;;;;;;-2.50;84.10;;;;;;4794951;29;19948;-92
2022/01/25 13:53:05;;;;;;;;;;;-2.50;82.70;;;;;;4855201;29;19977;-93
2022/01/25 13:58:58;;;;;;;;;;;-2.60;83.30;;;;;;4852708;29;20097;-93
2022/01/25 14:27:50;;;;;;;;;;;-2.90;81.50;;;;;;4866953;29;19942;-93
2022/01/25 14:33:33;;;;;;;;;;;-3.30;80.80;;;;;;4954573;28;19917;-92
2022/01/25 14:36:19;;;;;;;;;;;-3.50;82.80;;;;;;4961873;28;20421;-93
2022/01/25 14:38:59;;;;;;;;;;;-3.60;83.50;;;;;;4978369;28;19925;-93
2022/01/25 14:42:12;;;;;;;;;;;-3.60;84.80;;;;;;4979446;28;19916;-93
2022/01/25 14:51:02;;;;;;;;;;;-3.70;86.00;;;;;;4863832;29;19924;-94
2022/01/25 14:53:37;;;;;;;;;;;-3.60;86.40;;;;;;4938513;28;19917;-92
2022/01/25 14:56:18;;;;;;;;;;;-3.60;86.70;;;;;;4980753;28;19961;-92
2022/01/25 15:01:39;;;;;;;;;;;-3.50;86.90;;;;;;4982403;28;19965;-93
2022/01/25 15:04:16;;;;;;;;;;;-3.50;86.70;;;;;;4963199;28;19919;-92
2022/01/25 15:07:04;;;;;;;;;;;-3.50;86.90;;;;;;4963722;28;20006;-94
2022/01/25 15:09:33;;;;;;;;;;;-3.50;87.00;;;;;;4979268;28;19982;-92
2022/01/25 15:12:12;;;;;;;;;;;-3.60;86.50;;;;;;4946607;28;20404;-92
2022/01/25 15:15:46;;;;;;;;;;;-3.60;86.70;;;;;;4984067;28;19917;-93
2022/01/25 15:20:55;;;;;;;;;;;-3.70;86.40;;;;;;4929454;29;19918;-93
2022/01/25 15:26:53;;;;;;;;;;;-3.80;86.80;;;;;;4893609;29;19954;-93
2022/01/25 15:42:37;;;;;;;;;;;-3.90;88.20;;;;;;4815014;29;19939;-94
2022/01/25 15:48:43;;;;;;;;;;;-4.00;88.10;;;;;;4815028;29;19924;-93
2022/01/25 15:54:20;;;;;;;;;;;-4.20;88.30;;;;;;4849094;29;19998;-93
2022/01/25 15:56:46;;;;;;;;;;;-4.30;88.80;;;;;;4829951;29;19913;-93
2022/01/25 15:59:21;;;;;;;;;;;-4.40;89.20;;;;;;4818544;29;19971;-93
2022/01/25 16:05:19;;;;;;;;;;;-4.50;90.00;;;;;;4858940;29;19918;-95
2022/01/25 16:11:07;;;;;;;;;;;-4.60;90.20;;;;;;4846782;29;19923;-94
2022/01/25 16:16:55;;;;;;;;;;;-4.50;90.50;;;;;;4844485;29;19992;-94
2022/01/25 16:19:46;;;;;;;;;;;-4.50;90.50;;;;;;4853213;29;19951;-94
2022/01/25 16:22:19;;;;;;;;;;;-4.60;90.20;;;;;;4867828;29;19966;-93
2022/01/25 16:27:52;;;;;;;;;;;-4.60;90.20;;;;;;4902017;29;19918;-93
2022/01/25 16:36:32;;;;;;;;;;;-4.70;90.00;;;;;;4933907;29;19931;-95
2022/01/25 16:42:14;;;;;;;;;;;-4.90;89.90;;;;;;4922796;29;19978;-95
2022/01/25 16:47:58;;;;;;;;;;;-5.10;90.30;;;;;;4984175;28;19968;-95
2022/01/25 16:53:39;;;;;;;;;;;-5.20;90.70;;;;;;4925420;29;20495;-94
2022/01/25 16:56:10;;;;;;;;;;;-5.20;91.00;;;;;;4970174;28;19914;-95
2022/01/25 17:01:52;;;;;;;;;;;;;;;;;;;;;
2022/01/25 17:07:30;;;;;;;;;;;-5.20;90.90;;;;;;4880618;29;19964;-94
2022/01/25 17:10:02;;;;;;;;;;;-5.20;90.80;;;;;;4911197;29;19943;-94
2022/01/25 17:12:35;;;;;;;;;;;-5.30;90.90;;;;;;4890355;29;19915;-95
2022/01/25 17:21:21;;;;;;;;;;;-5.50;91.40;;;;;;4885297;29;19914;-93
2022/01/25 17:26:54;;;;;;;;;;;-5.50;91.80;;;;;;4921964;29;19918;-95
2022/01/25 17:29:36;;;;;;;;;;;;;;;;;;;;;
2022/01/25 17:39:25;;;;;;;;;;;;;;;;;;;;;
2022/01/25 17:45:16;;;;;;;;;;;-5.60;92.10;;;;;;4867585;29;19931;-94
2022/01/25 17:51:19;;;;;;;;;;;-5.70;91.80;;;;;;4897678;29;19930;-95
2022/01/25 18:00:24;;;;;;;;;;;-6.00;92.50;;;;;;4923402;29;19907;-96
2022/01/25 20:13:46;;;;;;;;;;;-6.80;94.60;;;;;;5976560;23;19915;-96
2022/01/25 20:19:22;;;;;;;;;;;-6.60;94.30;;;;;;5013607;28;19920;-95
2022/01/25 20:21:57;;;;;;;;;;;-6.50;94.30;;;;;;4995095;28;19921;-96
2022/01/25 20:27:52;;;;;;;;;;;-6.30;94.10;;;;;;5014408;28;19957;-96
2022/01/25 20:33:51;;;;;;;;;;;-6.30;93.70;;;;;;4938205;29;19922;-96
2022/01/25 20:39:41;;;;;;;;;;;-6.10;93.70;;;;;;4938058;29;20023;-96
2022/01/25 20:58:14;;;;;;;;;;;-5.80;92.70;;;;;;5015181;28;19929;-96
2022/01/25 21:33:11;;;;;;;;;;;-5.60;92.30;;;;;;4959275;29;19999;-96
2022/01/25 21:39:14;;;;;;;;;;;-5.60;92.60;;;;;;4959132;29;20046;-96
2022/01/25 21:48:01;;;;;;;;;;;-5.50;92.50;;;;;;4943202;29;19922;-96
2022/01/25 21:50:40;;;;;;;;;;;;;;;;;;;;;
2022/01/25 21:56:12;;;;;;;;;;;-5.50;92.40;;;;;;5018465;28;19916;-96
2022/01/25 21:58:45;;;;;;;;;;;-5.60;92.40;;;;;;5002494;28;19937;-96
2022/01/25 22:04:48;;;;;;;;;;;-5.60;92.30;;;;;;5019084;28;19929;-95
2022/01/25 22:10:40;;;;;;;;;;;-5.70;92.60;;;;;;5000392;28;19905;-96
2022/01/25 22:18:15;;;;;;;;;;;-5.80;93.10;;;;;;5244023;23;21097;-93
2022/01/25 22:20:45;;;;;;;;;;;-5.80;93.40;;;;;;5020870;28;19925;-96
2022/01/25 22:23:24;;;;;;;;;;;;;;;;;;;;;
2022/01/25 22:29:02;;;;;;;;;;;-5.70;93.50;;;;;;4978996;28;19959;-96
2022/01/25 22:34:36;;;;;;;;;;;-5.60;93.40;;;;;;4979342;28;19918;-96
2022/01/25 23:20:51;;;;;;;;;;;-5.60;94.10;;;;;;5011962;28;19928;-96
2022/01/25 23:26:40;;;;;;;;;;;-5.60;94.00;;;;;;5015712;28;19949;-95
2022/01/25 23:44:13;;;;;;;;;;;;;;;;;;;;;
2022/01/25 23:50:33;;;;;;;;;;;-5.20;94.10;;;;;;4975628;29;19935;-95
